sensor_id;sensor_type;location;lat;lon;timestamp;pressure;altitude;pressure_sealevel;temperature;humidity
72210;BME280;60113;48.762;12.302;2023-02-28T00:02:24;97929.97;;;-5.17;80.81
72210;BME280;60113;48.762;12.302;2023-02-28T00:04:49;97928.25;;;-5.19;80.54
72210;BME280;60113;48.762;12.302;2023-02-28T00:07:18;97931.69;;;-5.20;80.74
72210;BME280;60113;48.762;12.302;2023-02-28T00:09:43;97924.88;;;-5.23;80.93
72210;BME280;60113;48.762;12.302;2023-02-28T00:12:08;97935.13;;;-5.24;80.33
72210;BME280;60113;48.762;12.302;2023-02-28T00:14:38;97930.81;;;-5.27;80.62
72210;BME280;60113;48.762;12.302;2023-02-28T00:17:06;97926.56;;;-5.30;80.29
72210;BME280;60113;48.762;12.302;2023-02-28T00:19:33;97930.00;;;-5.35;80.43
72210;BME280;60113;48.762;12.302;2023-02-28T00:21:58;97918.88;;;-5.39;80.27
72210;BME280;60113;48.762;12.302;2023-02-28T00:24:24;97917.19;;;-5.37;80.53
72210;BME280;60113;48.762;12.302;2023-02-28T00:26:49;97919.75;;;-5.34;80.30
72210;BME280;60113;48.762;12.302;2023-02-28T00:29:17;97921.44;;;-5.34;80.03
72210;BME280;60113;48.762;12.302;2023-02-28T00:31:43;97916.31;;;-5.31;79.85
72210;BME280;60113;48.762;12.302;2023-02-28T00:34:16;97913.75;;;-5.34;80.17
72210;BME280;60113;48.762;12.302;2023-02-28T00:36:41;97923.19;;;-5.35;79.99
72210;BME280;60113;48.762;12.302;2023-02-28T00:39:10;97919.75;;;-5.35;79.95
72210;BME280;60113;48.762;12.302;2023-02-28T00:41:35;97916.34;;;-5.39;79.87
72210;BME280;60113;48.762;12.302;2023-02-28T00:44:01;97919.75;;;-5.42;80.01
72210;BME280;60113;48.762;12.302;2023-02-28T00:46:30;97914.63;;;-5.42;80.11
72210;BME280;60113;48.762;12.302;2023-02-28T00:48:55;97912.94;;;-5.43;79.89
72210;BME280;60113;48.762;12.302;2023-02-28T00:51:21;97906.94;;;-5.43;79.89
72210;BME280;60113;48.762;12.302;2023-02-28T00:53:46;97909.50;;;-5.45;80.08
72210;BME280;60113;48.762;12.302;2023-02-28T00:56:12;97908.66;;;-5.52;79.86
72210;BME280;60113;48.762;12.302;2023-02-28T00:58:40;97910.38;;;-5.58;80.23
72210;BME280;60113;48.762;12.302;2023-02-28T01:01:06;97906.97;;;-5.65;80.24
72210;BME280;60113;48.762;12.302;2023-02-28T01:03:31;97910.38;;;-5.68;80.63
72210;BME280;60113;48.762;12.302;2023-02-28T01:05:57;97906.09;;;-5.66;80.61
72210;BME280;60113;48.762;12.302;2023-02-28T01:08:22;97900.16;;;-5.71;80.34
72210;BME280;60113;48.762;12.302;2023-02-28T01:10:48;97899.28;;;-5.68;80.84
72210;BME280;60113;48.762;12.302;2023-02-28T01:13:14;97898.41;;;-5.69;80.39
72210;BME280;60113;48.762;12.302;2023-02-28T01:15:44;97894.16;;;-5.71;80.57
72210;BME280;60113;48.762;12.302;2023-02-28T01:18:11;97893.28;;;-5.75;80.29
72210;BME280;60113;48.762;12.302;2023-02-28T01:20:45;97895.84;;;-5.75;80.53
72210;BME280;60113;48.762;12.302;2023-02-28T01:23:11;97889.03;;;-5.76;80.47
72210;BME280;60113;48.762;12.302;2023-02-28T01:25:37;97892.47;;;-5.77;79.97
72210;BME280;60113;48.762;12.302;2023-02-28T01:28:02;97894.16;;;-5.76;80.47
72210;BME280;60113;48.762;12.302;2023-02-28T01:30:28;97883.91;;;-5.79;80.03
72210;BME280;60113;48.762;12.302;2023-02-28T01:32:56;97895.03;;;-5.72;80.47
72210;BME280;60113;48.762;12.302;2023-02-28T01:35:22;97889.91;;;-5.74;80.61
72210;BME280;60113;48.762;12.302;2023-02-28T01:37:47;97895.84;;;-5.67;80.58
72210;BME280;60113;48.762;12.302;2023-02-28T01:40:13;97890.72;;;-5.72;80.43
72210;BME280;60113;48.762;12.302;2023-02-28T01:42:39;97891.59;;;-5.73;80.46
72210;BME280;60113;48.762;12.302;2023-02-28T01:47:32;97881.34;;;-5.71;80.73
72210;BME280;60113;48.762;12.302;2023-02-28T01:50:00;97880.50;;;-5.69;80.62
72210;BME280;60113;48.762;12.302;2023-02-28T01:52:26;97879.66;;;-5.74;80.62
72210;BME280;60113;48.762;12.302;2023-02-28T01:54:53;97874.53;;;-5.79;80.80
72210;BME280;60113;48.762;12.302;2023-02-28T01:57:21;97871.13;;;-5.82;81.11
72210;BME280;60113;48.762;12.302;2023-02-28T01:59:53;97871.13;;;-5.81;80.88
72210;BME280;60113;48.762;12.302;2023-02-28T02:02:20;97862.56;;;-5.84;80.66
72210;BME280;60113;48.762;12.302;2023-02-28T02:05:00;97865.13;;;-5.84;81.32
72210;BME280;60113;48.762;12.302;2023-02-28T02:07:29;97862.56;;;-5.87;81.28
72210;BME280;60113;48.762;12.302;2023-02-28T02:10:00;97865.13;;;-5.89;81.38
72210;BME280;60113;48.762;12.302;2023-02-28T02:12:29;97866.00;;;-5.87;81.33
72210;BME280;60113;48.762;12.302;2023-02-28T02:17:35;97866.84;;;-5.86;81.80
72210;BME280;60113;48.762;12.302;2023-02-28T02:28:25;97867.72;;;-6.00;82.04
72210;BME280;60113;48.762;12.302;2023-02-28T02:36:00;97867.72;;;-6.17;82.38
72210;BME280;60113;48.762;12.302;2023-02-28T02:43:58;97866.88;;;-6.13;83.30
72210;BME280;60113;48.762;12.302;2023-02-28T02:46:19;97866.00;;;-6.09;82.94
72210;BME280;60113;48.762;12.302;2023-02-28T02:48:45;97866.03;;;-6.06;83.18
72210;BME280;60113;48.762;12.302;2023-02-28T02:51:13;97873.69;;;-6.04;83.19
72210;BME280;60113;48.762;12.302;2023-02-28T02:53:49;97866.00;;;-5.99;83.31
72210;BME280;60113;48.762;12.302;2023-02-28T02:56:19;97881.34;;;-5.99;83.29
72210;BME280;60113;48.762;12.302;2023-02-28T02:58:46;97870.25;;;-5.95;83.30
72210;BME280;60113;48.762;12.302;2023-02-28T03:01:15;97875.38;;;-5.94;83.01
72210;BME280;60113;48.762;12.302;2023-02-28T03:03:45;97877.09;;;-5.91;83.25
72210;BME280;60113;48.762;12.302;2023-02-28T03:06:12;97877.94;;;-5.92;83.24
72210;BME280;60113;48.762;12.302;2023-02-28T03:08:38;97877.09;;;-5.94;83.54
72210;BME280;60113;48.762;12.302;2023-02-28T03:11:05;97877.09;;;-5.96;83.84
72210;BME280;60113;48.762;12.302;2023-02-28T03:18:31;97883.06;;;-6.02;84.79
72210;BME280;60113;48.762;12.302;2023-02-28T03:23:48;97883.09;;;-6.08;85.12
72210;BME280;60113;48.762;12.302;2023-02-28T03:26:25;97877.09;;;-6.15;85.42
72210;BME280;60113;48.762;12.302;2023-02-28T03:29:02;97877.09;;;-6.16;85.91
72210;BME280;60113;48.762;12.302;2023-02-28T03:31:41;97877.09;;;-6.19;86.06
72210;BME280;60113;48.762;12.302;2023-02-28T03:36:38;97877.97;;;-6.20;86.51
72210;BME280;60113;48.762;12.302;2023-02-28T03:39:09;97878.78;;;-6.24;86.28
72210;BME280;60113;48.762;12.302;2023-02-28T03:41:45;97866.00;;;-6.23;86.65
72210;BME280;60113;48.762;12.302;2023-02-28T03:45:00;97865.16;;;-6.25;86.63
72210;BME280;60113;48.762;12.302;2023-02-28T03:47:04;97873.66;;;-6.24;87.03
72210;BME280;60113;48.762;12.302;2023-02-28T03:49:40;97866.00;;;-6.24;86.90
72210;BME280;60113;48.762;12.302;2023-02-28T03:52:11;97866.84;;;-6.25;87.15
72210;BME280;60113;48.762;12.302;2023-02-28T03:54:44;97872.84;;;-6.22;86.82
72210;BME280;60113;48.762;12.302;2023-02-28T04:00:02;97871.13;;;-6.24;87.01
72210;BME280;60113;48.762;12.302;2023-02-28T04:02:31;97871.97;;;-6.22;87.14
72210;BME280;60113;48.762;12.302;2023-02-28T04:04:56;97870.28;;;-6.23;86.92
72210;BME280;60113;48.762;12.302;2023-02-28T04:07:21;97874.56;;;-6.16;86.91
72210;BME280;60113;48.762;12.302;2023-02-28T04:09:47;97870.31;;;-6.09;86.76
72210;BME280;60113;48.762;12.302;2023-02-28T04:12:12;97868.56;;;-6.12;86.43
72210;BME280;60113;48.762;12.302;2023-02-28T04:14:37;97871.13;;;-6.07;86.66
72210;BME280;60113;48.762;12.302;2023-02-28T04:17:03;97864.31;;;-6.13;86.79
72210;BME280;60113;48.762;12.302;2023-02-28T04:19:29;97869.44;;;-6.11;86.44
72210;BME280;60113;48.762;12.302;2023-02-28T04:21:55;97874.56;;;-6.11;86.45
72210;BME280;60113;48.762;12.302;2023-02-28T04:24:24;97865.19;;;-6.09;86.29
72210;BME280;60113;48.762;12.302;2023-02-28T04:26:51;97871.13;;;-6.12;86.26
72210;BME280;60113;48.762;12.302;2023-02-28T04:29:20;97868.56;;;-6.17;86.40
72210;BME280;60113;48.762;12.302;2023-02-28T04:31:46;97866.00;;;-6.12;86.51
72210;BME280;60113;48.762;12.302;2023-02-28T04:34:11;97870.31;;;-6.06;86.41
72210;BME280;60113;48.762;12.302;2023-02-28T04:36:37;97871.09;;;-6.01;86.17
72210;BME280;60113;48.762;12.302;2023-02-28T04:39:05;97864.28;;;-6.00;85.55
72210;BME280;60113;48.762;12.302;2023-02-28T04:41:35;97873.66;;;-5.99;86.06
72210;BME280;60113;48.762;12.302;2023-02-28T04:44:00;97875.41;;;-6.02;85.70
72210;BME280;60113;48.762;12.302;2023-02-28T04:46:25;97871.13;;;-5.99;86.13
72210;BME280;60113;48.762;12.302;2023-02-28T04:48:50;97875.44;;;-6.05;86.18
72210;BME280;60113;48.762;12.302;2023-02-28T04:51:16;97874.53;;;-6.04;85.91
72210;BME280;60113;48.762;12.302;2023-02-28T04:53:43;97868.56;;;-6.07;85.58
72210;BME280;60113;48.762;12.302;2023-02-28T04:56:10;97870.31;;;-6.08;86.22
72210;BME280;60113;48.762;12.302;2023-02-28T04:58:36;97877.13;;;-6.08;86.14
72210;BME280;60113;48.762;12.302;2023-02-28T05:01:02;97872.88;;;-6.08;85.81
72210;BME280;60113;48.762;12.302;2023-02-28T05:03:28;97880.53;;;-6.05;85.74
72210;BME280;60113;48.762;12.302;2023-02-28T05:05:53;97879.69;;;-6.07;85.93
72210;BME280;60113;48.762;12.302;2023-02-28T05:08:19;97887.34;;;-6.07;85.95
72210;BME280;60113;48.762;12.302;2023-02-28T05:10:47;97887.34;;;-6.15;85.73
72210;BME280;60113;48.762;12.302;2023-02-28T05:13:12;97880.53;;;-6.20;86.22
72210;BME280;60113;48.762;12.302;2023-02-28T05:15:38;97895.00;;;-6.25;86.26
72210;BME280;60113;48.762;12.302;2023-02-28T05:18:03;97892.44;;;-6.30;86.31
72210;BME280;60113;48.762;12.302;2023-02-28T05:20:29;97895.00;;;-6.32;86.73
72210;BME280;60113;48.762;12.302;2023-02-28T05:22:57;97899.25;;;-6.28;86.54
72210;BME280;60113;48.762;12.302;2023-02-28T05:25:23;97895.84;;;-6.30;86.51
72210;BME280;60113;48.762;12.302;2023-02-28T05:27:48;97900.09;;;-6.32;86.59
72210;BME280;60113;48.762;12.302;2023-02-28T05:30:14;97898.41;;;-6.33;86.63
72210;BME280;60113;48.762;12.302;2023-02-28T05:32:40;97897.53;;;-6.36;86.91
72210;BME280;60113;48.762;12.302;2023-02-28T05:35:08;97900.09;;;-6.30;87.08
72210;BME280;60113;48.762;12.302;2023-02-28T05:37:33;97900.97;;;-6.28;86.55
72210;BME280;60113;48.762;12.302;2023-02-28T05:39:59;97900.09;;;-6.30;86.49
72210;BME280;60113;48.762;12.302;2023-02-28T05:42:24;97907.75;;;-6.36;86.39
72210;BME280;60113;48.762;12.302;2023-02-28T05:44:50;97906.06;;;-6.41;86.38
72210;BME280;60113;48.762;12.302;2023-02-28T05:47:15;97903.50;;;-6.42;86.91
72210;BME280;60113;48.762;12.302;2023-02-28T05:49:42;97906.06;;;-6.44;87.01
72210;BME280;60113;48.762;12.302;2023-02-28T05:52:07;97906.88;;;-6.46;86.88
72210;BME280;60113;48.762;12.302;2023-02-28T05:54:47;97906.03;;;-6.51;86.50
72210;BME280;60113;48.762;12.302;2023-02-28T05:57:13;97911.13;;;-6.53;86.70
72210;BME280;60113;48.762;12.302;2023-02-28T05:59:41;97911.97;;;-6.49;87.25
72210;BME280;60113;48.762;12.302;2023-02-28T06:02:10;97910.31;;;-6.44;86.82
72210;BME280;60113;48.762;12.302;2023-02-28T06:04:40;97906.03;;;-6.47;86.92
72210;BME280;60113;48.762;12.302;2023-02-28T06:07:07;97907.72;;;-6.47;86.66
72210;BME280;60113;48.762;12.302;2023-02-28T06:09:35;97912.84;;;-6.47;87.23
72210;BME280;60113;48.762;12.302;2023-02-28T06:12:01;97912.88;;;-6.44;86.63
72210;BME280;60113;48.762;12.302;2023-02-28T06:14:28;97917.09;;;-6.46;86.25
72210;BME280;60113;48.762;12.302;2023-02-28T06:16:56;97910.28;;;-6.50;85.84
72210;BME280;60113;48.762;12.302;2023-02-28T06:19:21;97912.00;;;-6.46;86.50
72210;BME280;60113;48.762;12.302;2023-02-28T06:21:48;97922.25;;;-6.42;86.74
72210;BME280;60113;48.762;12.302;2023-02-28T06:24:14;97927.38;;;-6.32;86.15
72210;BME280;60113;48.762;12.302;2023-02-28T06:26:39;97924.00;;;-6.33;85.54
72210;BME280;60113;48.762;12.302;2023-02-28T06:29:08;97927.41;;;-6.24;85.67
72210;BME280;60113;48.762;12.302;2023-02-28T06:31:33;97927.41;;;-6.24;85.94
72210;BME280;60113;48.762;12.302;2023-02-28T06:33:59;97931.69;;;-6.17;85.63
72210;BME280;60113;48.762;12.302;2023-02-28T06:36:27;97930.84;;;-6.13;85.49
72210;BME280;60113;48.762;12.302;2023-02-28T06:38:52;97933.41;;;-6.07;85.00
72210;BME280;60113;48.762;12.302;2023-02-28T06:41:24;97942.78;;;-5.98;84.86
72210;BME280;60113;48.762;12.302;2023-02-28T06:43:50;97934.25;;;-5.92;84.70
72210;BME280;60113;48.762;12.302;2023-02-28T06:46:18;97935.13;;;-5.87;84.59
72210;BME280;60113;48.762;12.302;2023-02-28T06:48:44;97934.25;;;-5.84;84.54
72210;BME280;60113;48.762;12.302;2023-02-28T06:51:14;97946.22;;;-5.72;84.05
72210;BME280;60113;48.762;12.302;2023-02-28T06:53:40;97947.94;;;-5.63;83.74
72210;BME280;60113;48.762;12.302;2023-02-28T06:56:09;97948.81;;;-5.54;83.18
72210;BME280;60113;48.762;12.302;2023-02-28T06:58:35;97952.19;;;-5.42;83.19
72210;BME280;60113;48.762;12.302;2023-02-28T07:01:01;97951.34;;;-5.33;82.84
72210;BME280;60113;48.762;12.302;2023-02-28T07:03:26;97952.19;;;-5.20;82.12
72210;BME280;60113;48.762;12.302;2023-02-28T07:05:52;97942.78;;;-5.12;81.92
72210;BME280;60113;48.762;12.302;2023-02-28T07:08:17;97953.84;;;-5.07;81.68
72210;BME280;60113;48.762;12.302;2023-02-28T07:10:43;97951.28;;;-4.99;81.22
72210;BME280;60113;48.762;12.302;2023-02-28T07:13:09;97954.69;;;-4.91;81.07
72210;BME280;60113;48.762;12.302;2023-02-28T07:15:35;97958.94;;;-4.82;80.85
72210;BME280;60113;48.762;12.302;2023-02-28T07:18:01;97967.47;;;-4.72;81.07
72210;BME280;60113;48.762;12.302;2023-02-28T07:20:26;97960.59;;;-4.64;80.92
72210;BME280;60113;48.762;12.302;2023-02-28T07:22:51;97963.13;;;-4.53;80.39
72210;BME280;60113;48.762;12.302;2023-02-28T07:25:30;97951.97;;;-4.41;80.21
72210;BME280;60113;48.762;12.302;2023-02-28T07:27:55;97958.72;;;-4.24;79.16
72210;BME280;60113;48.762;12.302;2023-02-28T07:30:21;97961.19;;;-4.05;78.42
72210;BME280;60113;48.762;12.302;2023-02-28T07:32:46;97961.94;;;-3.86;78.07
72210;BME280;60113;48.762;12.302;2023-02-28T07:35:11;97965.22;;;-3.64;77.35
72210;BME280;60113;48.762;12.302;2023-02-28T07:37:37;97965.94;;;-3.44;76.50
72210;BME280;60113;48.762;12.302;2023-02-28T07:40:06;97965.88;;;-3.35;75.14
72210;BME280;60113;48.762;12.302;2023-02-28T07:42:33;97970.03;;;-3.21;75.06
72210;BME280;60113;48.762;12.302;2023-02-28T07:44:59;97968.16;;;-3.08;74.16
72210;BME280;60113;48.762;12.302;2023-02-28T07:47:24;97963.72;;;-2.89;74.43
72210;BME280;60113;48.762;12.302;2023-02-28T07:49:49;97964.53;;;-2.85;72.32
72210;BME280;60113;48.762;12.302;2023-02-28T07:52:15;97961.00;;;-2.75;72.91
72210;BME280;60113;48.762;12.302;2023-02-28T07:54:40;97960.06;;;-2.68;71.78
72210;BME280;60113;48.762;12.302;2023-02-28T07:57:05;97955.69;;;-2.59;72.36
72210;BME280;60113;48.762;12.302;2023-02-28T07:59:31;97963.38;;;-2.58;71.67
72210;BME280;60113;48.762;12.302;2023-02-28T08:01:56;97958.91;;;-2.43;70.74
72210;BME280;60113;48.762;12.302;2023-02-28T08:04:22;97960.50;;;-2.31;70.85
72210;BME280;60113;48.762;12.302;2023-02-28T08:06:47;97953.41;;;-2.15;70.31
72210;BME280;60113;48.762;12.302;2023-02-28T08:09:12;97960.00;;;-1.95;69.86
72210;BME280;60113;48.762;12.302;2023-02-28T08:11:38;97958.94;;;-1.79;68.93
72210;BME280;60113;48.762;12.302;2023-02-28T08:14:03;97965.06;;;-1.88;67.42
72210;BME280;60113;48.762;12.302;2023-02-28T08:16:28;97960.69;;;-1.81;67.40
72210;BME280;60113;48.762;12.302;2023-02-28T08:18:54;97956.16;;;-1.65;67.71
72210;BME280;60113;48.762;12.302;2023-02-28T08:21:19;97964.88;;;-1.75;66.43
72210;BME280;60113;48.762;12.302;2023-02-28T08:23:48;97966.50;;;-1.66;65.48
72210;BME280;60113;48.762;12.302;2023-02-28T08:26:14;97962.03;;;-1.56;65.45
72210;BME280;60113;48.762;12.302;2023-02-28T08:28:39;97955.63;;;-1.32;66.32
72210;BME280;60113;48.762;12.302;2023-02-28T08:31:12;97963.84;;;-1.09;65.35
72210;BME280;60113;48.762;12.302;2023-02-28T08:33:38;97969.13;;;-1.16;63.19
72210;BME280;60113;48.762;12.302;2023-02-28T08:36:04;97966.88;;;-1.36;62.92
72210;BME280;60113;48.762;12.302;2023-02-28T08:38:33;97970.13;;;-1.24;63.46
72210;BME280;60113;48.762;12.302;2023-02-28T08:40:59;97964.19;;;-1.30;62.30
72210;BME280;60113;48.762;12.302;2023-02-28T08:43:25;97971.78;;;-1.20;63.40
72210;BME280;60113;48.762;12.302;2023-02-28T08:45:53;97967.78;;;-0.88;62.32
72210;BME280;60113;48.762;12.302;2023-02-28T08:48:19;97969.06;;;-0.65;61.42
72210;BME280;60113;48.762;12.302;2023-02-28T08:50:54;97970.66;;;-0.58;61.16
72210;BME280;60113;48.762;12.302;2023-02-28T08:53:19;97970.38;;;-0.42;61.95
72210;BME280;60113;48.762;12.302;2023-02-28T08:55:44;97963.22;;;-0.29;59.67
72210;BME280;60113;48.762;12.302;2023-02-28T08:58:10;97970.78;;;-0.20;59.52
72210;BME280;60113;48.762;12.302;2023-02-28T09:00:35;97973.50;;;0.15;60.98
72210;BME280;60113;48.762;12.302;2023-02-28T09:03:04;97962.53;;;0.04;59.01
72210;BME280;60113;48.762;12.302;2023-02-28T09:05:32;97972.50;;;0.21;60.78
72210;BME280;60113;48.762;12.302;2023-02-28T09:07:57;97968.88;;;0.28;58.66
72210;BME280;60113;48.762;12.302;2023-02-28T09:10:22;97973.34;;;0.21;58.00
72210;BME280;60113;48.762;12.302;2023-02-28T09:12:48;97976.84;;;0.19;57.86
72210;BME280;60113;48.762;12.302;2023-02-28T09:15:13;97972.72;;;0.10;58.34
72210;BME280;60113;48.762;12.302;2023-02-28T09:17:38;97980.72;;;-0.01;59.12
72210;BME280;60113;48.762;12.302;2023-02-28T09:20:04;97971.66;;;0.19;58.81
72210;BME280;60113;48.762;12.302;2023-02-28T09:22:30;97983.38;;;0.35;58.15
72210;BME280;60113;48.762;12.302;2023-02-28T09:24:55;97979.72;;;0.44;58.18
72210;BME280;60113;48.762;12.302;2023-02-28T09:27:20;97977.31;;;0.36;58.47
72210;BME280;60113;48.762;12.302;2023-02-28T09:29:46;97977.78;;;0.54;57.02
72210;BME280;60113;48.762;12.302;2023-02-28T09:32:11;97970.28;;;0.43;56.86
72210;BME280;60113;48.762;12.302;2023-02-28T09:34:36;97972.84;;;0.80;57.90
72210;BME280;60113;48.762;12.302;2023-02-28T09:37:02;97968.81;;;0.69;56.53
72210;BME280;60113;48.762;12.302;2023-02-28T09:39:27;97972.31;;;0.29;56.85
72210;BME280;60113;48.762;12.302;2023-02-28T09:41:54;97974.53;;;0.46;57.73
72210;BME280;60113;48.762;12.302;2023-02-28T09:44:53;97978.53;;;0.58;56.96
72210;BME280;60113;48.762;12.302;2023-02-28T09:47:18;97984.47;;;0.98;56.63
72210;BME280;60113;48.762;12.302;2023-02-28T09:49:49;97979.56;;;1.22;54.74
72210;BME280;60113;48.762;12.302;2023-02-28T09:52:18;97964.81;;;1.57;54.00
72210;BME280;60113;48.762;12.302;2023-02-28T09:54:45;97976.47;;;1.72;55.04
72210;BME280;60113;48.762;12.302;2023-02-28T09:57:32;97970.63;;;1.96;56.72
72210;BME280;60113;48.762;12.302;2023-02-28T10:00:05;97972.25;;;2.00;51.90
72210;BME280;60113;48.762;12.302;2023-02-28T10:05:13;97983.25;;;2.64;52.15
72210;BME280;60113;48.762;12.302;2023-02-28T10:12:59;97986.56;;;2.69;52.02
72210;BME280;60113;48.762;12.302;2023-02-28T10:15:25;97985.66;;;2.43;49.69
72210;BME280;60113;48.762;12.302;2023-02-28T10:17:54;97980.41;;;2.72;49.83
72210;BME280;60113;48.762;12.302;2023-02-28T10:20:23;97980.16;;;3.07;51.43
72210;BME280;60113;48.762;12.302;2023-02-28T10:23:03;97986.94;;;2.84;49.03
72210;BME280;60113;48.762;12.302;2023-02-28T10:25:33;97982.97;;;3.00;50.11
72210;BME280;60113;48.762;12.302;2023-02-28T10:28:01;97988.25;;;2.97;50.30
72210;BME280;60113;48.762;12.302;2023-02-28T10:30:30;97984.94;;;2.67;50.62
72210;BME280;60113;48.762;12.302;2023-02-28T10:32:55;97983.69;;;3.04;50.93
72210;BME280;60113;48.762;12.302;2023-02-28T10:35:25;97986.00;;;2.86;48.95
72210;BME280;60113;48.762;12.302;2023-02-28T10:37:53;97995.28;;;2.94;49.45
72210;BME280;60113;48.762;12.302;2023-02-28T10:45:30;97981.56;;;2.34;53.17
72210;BME280;60113;48.762;12.302;2023-02-28T10:50:55;97983.28;;;2.91;49.70
72210;BME280;60113;48.762;12.302;2023-02-28T10:55:59;97983.44;;;2.58;49.86
72210;BME280;60113;48.762;12.302;2023-02-28T10:58:27;97982.00;;;2.49;50.54
72210;BME280;60113;48.762;12.302;2023-02-28T11:00:53;97980.50;;;2.42;50.57
72210;BME280;60113;48.762;12.302;2023-02-28T11:03:23;97981.97;;;2.50;49.94
72210;BME280;60113;48.762;12.302;2023-02-28T11:05:48;97980.59;;;2.66;52.09
72210;BME280;60113;48.762;12.302;2023-02-28T11:08:15;97980.06;;;3.10;53.09
72210;BME280;60113;48.762;12.302;2023-02-28T11:10:44;97981.00;;;3.33;49.56
72210;BME280;60113;48.762;12.302;2023-02-28T11:13:16;97970.56;;;3.09;48.85
72210;BME280;60113;48.762;12.302;2023-02-28T11:15:43;97971.91;;;2.40;51.66
72210;BME280;60113;48.762;12.302;2023-02-28T11:18:29;97963.56;;;2.30;51.09
72210;BME280;60113;48.762;12.302;2023-02-28T11:20:58;97966.50;;;2.47;52.55
72210;BME280;60113;48.762;12.302;2023-02-28T11:23:25;97957.06;;;2.72;53.77
72210;BME280;60113;48.762;12.302;2023-02-28T11:25:52;97971.47;;;3.08;50.70
72210;BME280;60113;48.762;12.302;2023-02-28T11:28:27;97963.97;;;2.98;51.29
72210;BME280;60113;48.762;12.302;2023-02-28T11:31:26;97955.53;;;2.66;50.58
72210;BME280;60113;48.762;12.302;2023-02-28T11:33:52;97963.94;;;3.00;51.54
72210;BME280;60113;48.762;12.302;2023-02-28T11:38:43;97966.91;;;3.15;50.32
72210;BME280;60113;48.762;12.302;2023-02-28T11:43:58;97959.63;;;3.74;51.29
72210;BME280;60113;48.762;12.302;2023-02-28T11:51:33;97952.53;;;4.02;51.54
72210;BME280;60113;48.762;12.302;2023-02-28T11:56:58;97953.59;;;4.42;49.88
72210;BME280;60113;48.762;12.302;2023-02-28T12:02:03;97953.72;;;4.39;48.32
72210;BME280;60113;48.762;12.302;2023-02-28T12:07:09;97949.00;;;3.80;49.38
72210;BME280;60113;48.762;12.302;2023-02-28T12:09:50;97953.91;;;2.89;50.00
72210;BME280;60113;48.762;12.302;2023-02-28T12:19:46;97947.25;;;3.57;49.20
72210;BME280;60113;48.762;12.302;2023-02-28T12:22:18;97938.50;;;3.10;50.69
72210;BME280;60113;48.762;12.302;2023-02-28T12:27:37;97930.84;;;3.79;52.77
72210;BME280;60113;48.762;12.302;2023-02-28T12:32:30;97932.41;;;3.84;50.43
72210;BME280;60113;48.762;12.302;2023-02-28T12:35:04;97935.06;;;3.59;50.56
72210;BME280;60113;48.762;12.302;2023-02-28T12:37:52;97931.66;;;3.57;50.18
72210;BME280;60113;48.762;12.302;2023-02-28T12:40:21;97929.16;;;3.78;49.97
72210;BME280;60113;48.762;12.302;2023-02-28T12:42:51;97925.34;;;3.64;50.02
72210;BME280;60113;48.762;12.302;2023-02-28T12:45:25;97909.00;;;3.84;51.03
72210;BME280;60113;48.762;12.302;2023-02-28T12:47:55;97923.06;;;3.55;52.31
72210;BME280;60113;48.762;12.302;2023-02-28T12:50:22;97915.94;;;3.36;51.90
72210;BME280;60113;48.762;12.302;2023-02-28T12:53:01;97918.09;;;3.48;51.74
72210;BME280;60113;48.762;12.302;2023-02-28T13:00:47;97916.81;;;3.11;51.88
72210;BME280;60113;48.762;12.302;2023-02-28T13:10:58;97919.16;;;3.19;53.38
72210;BME280;60113;48.762;12.302;2023-02-28T13:13:24;97908.13;;;3.12;52.69
72210;BME280;60113;48.762;12.302;2023-02-28T13:16:00;97913.75;;;3.25;53.83
72210;BME280;60113;48.762;12.302;2023-02-28T13:18:30;97908.09;;;3.37;52.49
72210;BME280;60113;48.762;12.302;2023-02-28T13:20:56;97911.09;;;3.50;51.90
72210;BME280;60113;48.762;12.302;2023-02-28T13:23:41;97914.59;;;3.49;52.08
72210;BME280;60113;48.762;12.302;2023-02-28T13:26:12;97914.94;;;3.40;52.78
72210;BME280;60113;48.762;12.302;2023-02-28T13:34:41;97911.88;;;3.53;51.30
72210;BME280;60113;48.762;12.302;2023-02-28T13:55:22;97908.47;;;4.64;49.08
72210;BME280;60113;48.762;12.302;2023-02-28T13:58:04;97906.34;;;4.95;52.68
72210;BME280;60113;48.762;12.302;2023-02-28T14:00:42;97908.59;;;5.03;49.05
72210;BME280;60113;48.762;12.302;2023-02-28T14:05:34;97904.25;;;5.24;48.62
72210;BME280;60113;48.762;12.302;2023-02-28T14:08:13;97908.63;;;5.43;49.69
72210;BME280;60113;48.762;12.302;2023-02-28T14:11:02;97898.25;;;5.41;51.13
72210;BME280;60113;48.762;12.302;2023-02-28T14:16:21;97915.88;;;5.36;53.40
72210;BME280;60113;48.762;12.302;2023-02-28T14:18:54;97913.69;;;5.06;51.19
72210;BME280;60113;48.762;12.302;2023-02-28T14:21:24;97905.78;;;4.88;50.83
72210;BME280;60113;48.762;12.302;2023-02-28T14:24:08;97904.25;;;4.82;53.06
72210;BME280;60113;48.762;12.302;2023-02-28T14:31:37;97904.25;;;4.82;49.88
72210;BME280;60113;48.762;12.302;2023-02-28T14:36:47;97908.03;;;4.96;51.20
72210;BME280;60113;48.762;12.302;2023-02-28T14:39:14;97910.84;;;4.91;49.53
72210;BME280;60113;48.762;12.302;2023-02-28T14:41:41;97904.53;;;4.97;49.52
72210;BME280;60113;48.762;12.302;2023-02-28T14:44:17;97913.09;;;5.20;50.75
72210;BME280;60113;48.762;12.302;2023-02-28T14:46:43;97910.50;;;5.20;50.02
72210;BME280;60113;48.762;12.302;2023-02-28T14:49:13;97913.44;;;5.12;49.61
72210;BME280;60113;48.762;12.302;2023-02-28T14:51:40;97907.06;;;5.19;50.16
72210;BME280;60113;48.762;12.302;2023-02-28T14:54:07;97907.38;;;5.11;49.99
72210;BME280;60113;48.762;12.302;2023-02-28T14:56:36;97909.59;;;5.00;55.43
72210;BME280;60113;48.762;12.302;2023-02-28T14:59:05;97916.88;;;4.92;52.32
72210;BME280;60113;48.762;12.302;2023-02-28T15:01:31;97915.72;;;4.99;49.89
72210;BME280;60113;48.762;12.302;2023-02-28T15:03:59;97907.13;;;5.18;50.90
72210;BME280;60113;48.762;12.302;2023-02-28T15:06:26;97913.03;;;5.21;51.83
72210;BME280;60113;48.762;12.302;2023-02-28T15:09:13;97914.09;;;4.96;50.00
72210;BME280;60113;48.762;12.302;2023-02-28T15:11:39;97919.50;;;4.71;52.42
72210;BME280;60113;48.762;12.302;2023-02-28T15:14:05;97919.31;;;4.53;52.49
72210;BME280;60113;48.762;12.302;2023-02-28T15:19:00;97927.28;;;4.28;53.00